Terminal Aerodrome Forecast
Issued by NWS

Home | Current Version | Previous Version | Text Only | Print | Product List | Glossary On
Versions: 1 2 3 4 5 6 7 8 9 10 11 12 13 14 15 16 17 18 19 20
000
FTUS43 KDLH 260100 AAA
TAFHYR
TAF AMD
KHYR 260132Z 2602/2624 16005KT P6SM FEW007 OVC023
     FM260600 24003KT 3SM BR BKN009 OVC022
     FM261100 28006KT 6SM BR SCT014
     FM261400 27010KT P6SM SKC
     FM262100 23012KT P6SM SCT100=

USA.gov is the U.S. government's official web portal to all federal, state and local government web resources and services.